createdAt,value
2019-03-21T16:31:56.285Z,0
2019-03-21T16:32:02.382Z,0
2019-03-21T16:32:05.844Z,0
2019-03-21T16:32:10.265Z,0
2019-03-21T16:32:14.632Z,0
2019-03-21T16:32:18.888Z,0
2019-03-21T16:32:23.158Z,0
2019-03-21T16:32:27.810Z,0
2019-03-21T16:32:58.836Z,38.7146
2019-03-21T16:33:02.940Z,38.012695
2019-03-21T16:33:07.222Z,37.896729
2019-03-21T16:33:11.513Z,38.195801
2019-03-21T16:33:15.820Z,37.774658
2019-03-21T16:33:20.061Z,37.475586
2019-03-21T16:33:24.305Z,37.475586
2019-03-21T16:33:28.533Z,38.775635
2019-03-21T16:33:32.835Z,39.178467
2019-03-21T16:33:37.164Z,38.378906
2019-03-21T16:33:43.372Z,37.579346
2019-03-21T16:33:46.626Z,36.975098
2019-03-21T16:33:50.871Z,36.474609
2019-03-21T16:33:55.120Z,36.376953
2019-03-21T16:33:59.384Z,36.279297
2019-03-21T16:34:03.767Z,36.175537
2019-03-21T16:34:07.905Z,36.175537
2019-03-21T16:34:12.228Z,36.175537
2019-03-21T16:34:16.432Z,36.193848
2019-03-21T16:34:20.731Z,36.291504
2019-03-21T16:34:25.055Z,36.395264
2019-03-21T16:34:29.317Z,36.395264
2019-03-21T16:34:33.551Z,36.395264
2019-03-21T16:34:37.816Z,36.49292
2019-03-21T16:34:42.107Z,36.49292
2019-03-21T16:34:48.021Z,36.49292
2019-03-21T16:34:51.601Z,36.59668
2019-03-21T16:34:55.900Z,36.608887
2019-03-21T16:35:00.131Z,36.712646
2019-03-21T16:35:04.373Z,36.712646
2019-03-21T16:35:08.609Z,36.810303
2019-03-21T16:35:12.927Z,36.810303
2019-03-21T16:35:17.271Z,36.914062
2019-03-21T16:35:21.467Z,36.914062
2019-03-21T16:35:25.738Z,37.011719
2019-03-21T16:35:29.934Z,37.011719
2019-03-21T16:35:34.210Z,37.127686
2019-03-21T16:35:38.504Z,37.127686
2019-03-21T16:35:42.764Z,37.231445
2019-03-21T16:35:47.058Z,37.231445
2019-03-21T16:35:51.283Z,37.231445
2019-03-21T16:35:55.544Z,37.231445
2019-03-21T16:35:59.894Z,37.329102
2019-03-21T16:36:04.072Z,37.329102
2019-03-21T16:36:08.343Z,37.329102
2019-03-21T16:36:12.667Z,37.432861
2019-03-21T16:36:16.970Z,37.432861
2019-03-21T16:36:21.201Z,37.530518
2019-03-21T16:36:25.490Z,37.530518
2019-03-21T16:36:29.754Z,37.548828
2019-03-21T16:36:34.020Z,37.646484
2019-03-21T16:36:38.246Z,37.646484
2019-03-21T16:36:42.517Z,37.750244
2019-03-21T16:36:46.818Z,37.750244
2019-03-21T16:36:51.068Z,37.750244
2019-03-21T16:36:55.342Z,37.8479
2019-03-21T16:36:59.590Z,37.8479
2019-03-21T16:37:03.856Z,37.945557
2019-03-21T16:37:08.086Z,37.945557
2019-03-21T16:37:12.363Z,37.945557
2019-03-21T16:37:16.649Z,38.049316
2019-03-21T16:37:20.895Z,38.049316
2019-03-21T16:37:25.133Z,38.049316
2019-03-21T16:37:29.393Z,38.049316
2019-03-21T16:37:33.664Z,38.049316
2019-03-21T16:37:37.998Z,38.049316
2019-03-21T16:37:42.301Z,38.049316
2019-03-21T16:37:46.466Z,38.146973
2019-03-21T16:37:50.727Z,38.146973
2019-03-21T16:37:54.993Z,38.146973
2019-03-21T16:37:59.257Z,38.146973
2019-03-21T16:38:03.574Z,38.146973
2019-03-21T16:38:07.794Z,38.146973
2019-03-21T16:38:12.055Z,38.146973
2019-03-21T16:38:16.318Z,38.146973
2019-03-21T16:38:20.591Z,38.165283
2019-03-21T16:38:24.864Z,38.165283
2019-03-21T16:38:29.122Z,38.165283
2019-03-21T16:38:33.402Z,38.165283
2019-03-21T16:38:37.665Z,38.269043
2019-03-21T16:38:41.933Z,38.269043
2019-03-21T16:38:46.180Z,38.269043
2019-03-21T16:38:50.445Z,38.269043
2019-03-21T16:38:54.757Z,38.269043
2019-03-21T16:38:59.012Z,38.269043
2019-03-21T16:39:03.236Z,38.269043
2019-03-21T16:39:07.541Z,38.269043
2019-03-21T16:39:11.785Z,38.269043
2019-03-21T16:39:16.070Z,38.366699
2019-03-21T16:39:20.328Z,38.269043
2019-03-21T16:39:24.606Z,38.366699
2019-03-21T16:39:28.834Z,38.366699
2019-03-21T16:39:33.100Z,38.366699
2019-03-21T16:39:37.386Z,38.470459
2019-03-21T16:39:41.651Z,38.470459
2019-03-21T16:39:45.884Z,38.470459
2019-03-21T16:39:50.155Z,38.470459
2019-03-21T16:39:54.416Z,38.470459
2019-03-21T16:39:58.755Z,38.470459
2019-03-21T16:40:02.952Z,38.470459
2019-03-21T16:40:07.365Z,38.470459
2019-03-21T16:40:13.146Z,38.470459
2019-03-21T16:40:16.770Z,38.470459
2019-03-21T16:40:21.023Z,38.470459
2019-03-21T16:40:25.900Z,38.470459
2019-03-21T16:40:29.741Z,38.568115
2019-03-21T16:40:33.808Z,38.568115
2019-03-21T16:40:38.076Z,38.568115
2019-03-21T16:40:42.327Z,38.568115
2019-03-21T16:40:46.707Z,38.568115
2019-03-21T16:40:50.873Z,38.568115
2019-03-21T16:40:55.126Z,38.568115
2019-03-21T16:40:59.524Z,38.665771
2019-03-21T16:41:03.763Z,38.665771
2019-03-21T16:41:08.261Z,38.665771
2019-03-21T16:41:12.405Z,38.665771
2019-03-21T16:41:16.615Z,38.665771
2019-03-21T16:41:20.956Z,38.665771
2019-03-21T16:41:25.134Z,38.665771
2019-03-21T16:41:29.335Z,38.665771
2019-03-21T16:41:33.666Z,38.665771
2019-03-21T16:41:37.773Z,38.665771
2019-03-21T16:41:42.040Z,38.665771
2019-03-21T16:41:46.308Z,38.665771
2019-03-21T16:41:50.582Z,38.769531
2019-03-21T16:41:54.882Z,38.769531
2019-03-21T16:41:59.111Z,38.769531
2019-03-21T16:42:03.357Z,38.769531
2019-03-21T16:42:07.623Z,38.769531
2019-03-21T16:42:11.901Z,38.769531
2019-03-21T16:42:17.416Z,38.769531
2019-03-21T16:42:21.632Z,38.769531
2019-03-21T16:42:26.871Z,38.665771
2019-03-21T16:42:31.127Z,38.665771
2019-03-21T16:42:37.111Z,38.568115
2019-03-21T16:42:40.578Z,38.568115
2019-03-21T16:42:44.731Z,38.470459
2019-03-21T16:42:49.012Z,38.470459
2019-03-21T16:42:53.251Z,38.470459
2019-03-21T16:42:57.539Z,38.470459
2019-03-21T16:43:01.795Z,38.470459
2019-03-21T16:43:06.193Z,38.470459
2019-03-21T16:43:10.568Z,38.470459
2019-03-21T16:43:15.403Z,38.470459
2019-03-21T16:43:18.995Z,38.470459
2019-03-21T16:43:23.293Z,38.470459
2019-03-21T16:43:27.661Z,38.470459
2019-03-21T16:43:31.954Z,38.568115
2019-03-21T16:43:36.431Z,38.568115
2019-03-21T16:43:40.291Z,38.568115
2019-03-21T16:43:44.553Z,38.568115
2019-03-21T16:43:48.892Z,38.568115
2019-03-21T16:43:53.459Z,38.568115
2019-03-21T16:43:57.222Z,38.665771
2019-03-21T16:44:01.730Z,38.665771
2019-03-21T16:44:05.737Z,38.665771
2019-03-21T16:44:09.997Z,38.665771
2019-03-21T16:44:14.264Z,38.665771
2019-03-21T16:44:18.525Z,38.665771
2019-03-21T16:44:22.786Z,38.665771
2019-03-21T16:44:27.050Z,38.665771
2019-03-21T16:44:31.363Z,38.665771
2019-03-21T16:44:35.575Z,38.665771
2019-03-21T16:44:39.841Z,38.665771
2019-03-21T16:44:44.108Z,38.665771
2019-03-21T16:44:48.419Z,38.769531
2019-03-21T16:44:52.734Z,38.769531
2019-03-21T16:44:56.948Z,38.769531
2019-03-21T16:45:02.192Z,38.769531
2019-03-21T16:45:06.467Z,38.787842
2019-03-21T16:45:10.730Z,38.769531
2019-03-21T16:45:15.004Z,38.787842
2019-03-21T16:45:21.155Z,38.787842
2019-03-21T16:45:24.521Z,38.787842
2019-03-21T16:45:28.785Z,38.787842
2019-03-21T16:45:33.049Z,38.787842
2019-03-21T16:45:37.315Z,38.787842
2019-03-21T16:45:41.581Z,38.787842
2019-03-21T16:45:45.842Z,38.787842
2019-03-21T16:45:50.110Z,38.787842
2019-03-21T16:45:55.361Z,38.885498
2019-03-21T16:45:59.621Z,38.885498
2019-03-21T16:46:03.880Z,38.885498
2019-03-21T16:46:08.147Z,38.885498
2019-03-21T16:46:12.409Z,38.885498
2019-03-21T16:46:16.696Z,38.885498
2019-03-21T16:46:20.943Z,38.885498
2019-03-21T16:46:25.216Z,38.885498
2019-03-21T16:46:29.466Z,38.885498
2019-03-21T16:46:33.818Z,38.885498
2019-03-21T16:46:38.143Z,38.885498
2019-03-21T16:46:42.397Z,38.885498
2019-03-21T16:46:46.611Z,38.885498
2019-03-21T16:46:50.915Z,38.885498
2019-03-21T16:46:55.195Z,38.885498
2019-03-21T16:46:59.493Z,38.885498
2019-03-21T16:47:03.701Z,38.885498
2019-03-21T16:47:08.068Z,38.885498
2019-03-21T16:47:12.302Z,38.885498
2019-03-21T16:47:16.559Z,38.885498
2019-03-21T16:47:20.810Z,38.885498
2019-03-21T16:47:25.050Z,38.989258
2019-03-21T16:47:29.318Z,38.885498
2019-03-21T16:47:33.604Z,38.885498
2019-03-21T16:47:37.839Z,38.885498
2019-03-21T16:47:42.105Z,38.885498
2019-03-21T16:47:46.787Z,38.885498
2019-03-21T16:47:50.632Z,38.885498
2019-03-21T16:47:54.895Z,38.989258
2019-03-21T16:47:59.165Z,38.989258
2019-03-21T16:48:03.458Z,38.989258
2019-03-21T16:48:09.274Z,38.989258
2019-03-21T16:48:12.926Z,38.989258
2019-03-21T16:48:17.265Z,38.989258
2019-03-21T16:48:21.449Z,38.989258
2019-03-21T16:48:25.711Z,38.989258
2019-03-21T16:48:29.979Z,38.989258
2019-03-21T16:48:34.300Z,38.989258
2019-03-21T16:48:38.555Z,38.989258
2019-03-21T16:48:42.772Z,38.989258
2019-03-21T16:48:47.031Z,38.989258
2019-03-21T16:48:51.295Z,38.989258
2019-03-21T16:48:55.563Z,38.989258
2019-03-21T16:48:59.826Z,38.989258
2019-03-21T16:49:04.095Z,38.989258
2019-03-21T16:49:08.354Z,38.989258
2019-03-21T16:49:12.618Z,38.989258
2019-03-21T16:49:16.876Z,38.989258
2019-03-21T16:49:21.142Z,38.989258
2019-03-21T16:49:25.408Z,38.989258
2019-03-21T16:49:29.693Z,38.989258
2019-03-21T16:49:33.936Z,38.885498
2019-03-21T16:49:38.203Z,38.885498
2019-03-21T16:49:42.466Z,38.885498
2019-03-21T16:49:46.778Z,38.885498
2019-03-21T16:49:51.000Z,38.885498
2019-03-21T16:49:55.268Z,38.885498
2019-03-21T16:49:59.536Z,38.885498
2019-03-21T16:50:03.809Z,38.885498
2019-03-21T16:50:08.061Z,38.885498
2019-03-21T16:50:12.336Z,38.885498
2019-03-21T16:50:16.594Z,38.885498
2019-03-21T16:50:20.864Z,38.885498
2019-03-21T16:50:25.134Z,38.885498
2019-03-21T16:50:29.401Z,38.885498
2019-03-21T16:50:33.672Z,38.885498
2019-03-21T16:50:37.944Z,38.885498
2019-03-21T16:50:42.254Z,38.885498
2019-03-21T16:50:46.467Z,38.885498
2019-03-21T16:50:50.739Z,38.885498
2019-03-21T16:50:54.994Z,38.885498
2019-03-21T16:50:59.274Z,38.885498
2019-03-21T16:51:03.557Z,38.885498
2019-03-21T16:51:07.783Z,38.885498
2019-03-21T16:51:12.053Z,38.885498
2019-03-21T16:51:16.365Z,38.787842
2019-03-21T16:51:20.609Z,38.787842
2019-03-21T16:51:24.845Z,38.787842
2019-03-21T16:51:29.113Z,38.787842
2019-03-21T16:51:33.376Z,38.787842
2019-03-21T16:51:37.647Z,38.769531
2019-03-21T16:51:41.927Z,38.769531
2019-03-21T16:51:46.194Z,38.769531
2019-03-21T16:51:50.445Z,38.769531
2019-03-21T16:51:54.713Z,38.769531
2019-03-21T16:51:58.973Z,38.665771
2019-03-21T16:52:03.238Z,38.665771
2019-03-21T16:52:07.503Z,38.665771
2019-03-21T16:52:11.768Z,38.665771
2019-03-21T16:52:16.034Z,38.665771
2019-03-21T16:52:20.300Z,38.665771
2019-03-21T16:52:24.564Z,38.665771
2019-03-21T16:52:28.827Z,38.665771
2019-03-21T16:52:33.091Z,38.665771
2019-03-21T16:52:37.360Z,38.665771
2019-03-21T16:52:41.682Z,38.769531
2019-03-21T16:52:45.939Z,38.769531
2019-03-21T16:52:50.208Z,38.769531
2019-03-21T16:52:54.471Z,38.769531
2019-03-21T16:52:58.737Z,38.769531
2019-03-21T16:53:03.004Z,38.665771
2019-03-21T16:53:07.265Z,38.665771
2019-03-21T16:53:11.528Z,38.665771
2019-03-21T16:53:15.799Z,38.665771
2019-03-21T16:53:20.062Z,38.665771
2019-03-21T16:53:24.329Z,38.769531
2019-03-21T16:53:28.592Z,38.769531
2019-03-21T16:53:32.863Z,38.769531
2019-03-21T16:53:37.130Z,39.068604
2019-03-21T16:53:43.757Z,39.27002
2019-03-21T16:53:46.640Z,39.367676
2019-03-21T16:53:50.910Z,39.471436
2019-03-21T16:53:55.179Z,39.569092
2019-03-21T16:53:59.446Z,39.471436
2019-03-21T16:54:03.709Z,39.27002
2019-03-21T16:54:16.388Z,39.16626
2019-03-21T16:54:17.223Z,39.068604
2019-03-21T16:54:18.462Z,38.970947
2019-03-21T16:54:22.744Z,38.867188
2019-03-21T16:54:27.080Z,38.769531
2019-03-21T16:54:31.256Z,38.769531
2019-03-21T16:54:35.513Z,38.769531
2019-03-21T16:54:40.781Z,38.769531
2019-03-21T16:54:45.038Z,38.867188
2019-03-21T16:54:49.297Z,38.867188
2019-03-21T16:54:53.593Z,38.867188
2019-03-21T16:54:57.830Z,38.867188
2019-03-21T16:55:02.106Z,38.867188
2019-03-21T16:55:06.452Z,38.970947
2019-03-21T16:55:10.659Z,38.970947
2019-03-21T16:55:14.951Z,38.970947
2019-03-21T16:55:19.154Z,38.867188
2019-03-21T16:55:25.017Z,38.867188
2019-03-21T16:55:28.801Z,38.867188
2019-03-21T16:55:33.014Z,38.867188
2019-03-21T16:55:37.278Z,38.769531
2019-03-21T16:55:41.457Z,38.769531
2019-03-21T16:55:45.721Z,38.769531
2019-03-21T16:55:50.046Z,38.769531
2019-03-21T16:55:54.261Z,38.867188
2019-03-21T16:55:58.530Z,38.769531
2019-03-21T16:56:03.340Z,38.665771
2019-03-21T16:56:07.457Z,38.665771
2019-03-21T16:56:12.011Z,38.568115
2019-03-21T16:56:16.211Z,38.568115
2019-03-21T16:56:20.108Z,38.568115
2019-03-21T16:56:24.774Z,38.568115
2019-03-21T16:56:28.567Z,38.568115
2019-03-21T16:56:32.837Z,38.568115
2019-03-21T16:56:37.098Z,38.568115
2019-03-21T16:56:41.369Z,38.568115
2019-03-21T16:56:45.639Z,38.568115
2019-03-21T16:56:49.899Z,38.568115
2019-03-21T16:56:54.167Z,38.568115
2019-03-21T16:56:58.881Z,38.568115
2019-03-21T16:57:03.400Z,38.470459
2019-03-21T16:57:07.101Z,38.470459
2019-03-21T16:57:11.466Z,38.470459
2019-03-21T16:57:15.543Z,38.470459
2019-03-21T16:57:19.810Z,38.470459
2019-03-21T16:57:24.164Z,38.470459
2019-03-21T16:57:28.281Z,38.470459
2019-03-21T16:57:32.543Z,38.470459
2019-03-21T16:57:36.806Z,38.568115
2019-03-21T16:57:41.082Z,38.568115
2019-03-21T16:57:45.344Z,38.568115
2019-03-21T16:57:49.838Z,38.568115
2019-03-21T16:57:54.317Z,38.568115
2019-03-21T16:57:58.474Z,38.568115
2019-03-21T16:58:02.697Z,38.568115
2019-03-21T16:58:06.929Z,38.470459
2019-03-21T16:58:11.038Z,38.470459
2019-03-21T16:58:15.338Z,38.568115
2019-03-21T16:58:19.538Z,38.665771
2019-03-21T16:58:23.769Z,38.665771
2019-03-21T16:58:28.105Z,38.568115
2019-03-21T16:58:32.316Z,38.568115
2019-03-21T16:58:36.535Z,38.470459
2019-03-21T16:58:40.802Z,38.470459
2019-03-21T16:58:45.063Z,38.470459
2019-03-21T16:58:49.332Z,38.470459
2019-03-21T16:58:53.602Z,38.470459
2019-03-21T16:58:58.823Z,38.470459
2019-03-21T16:59:03.123Z,38.470459
2019-03-21T16:59:07.389Z,38.568115
2019-03-21T16:59:11.655Z,38.568115
2019-03-21T16:59:15.918Z,38.568115
2019-03-21T16:59:20.193Z,38.568115
2019-03-21T16:59:24.457Z,38.568115
2019-03-21T16:59:28.716Z,38.665771
2019-03-21T16:59:32.983Z,38.769531
2019-03-21T16:59:37.246Z,38.665771
2019-03-21T16:59:41.514Z,38.568115
2019-03-21T16:59:45.776Z,38.568115
2019-03-21T16:59:50.047Z,38.665771
2019-03-21T16:59:54.320Z,38.665771
2019-03-21T16:59:58.582Z,38.665771
2019-03-21T17:00:02.833Z,38.568115
2019-03-21T17:00:07.099Z,38.470459
2019-03-21T17:00:11.370Z,38.470459
2019-03-21T17:00:17.690Z,38.470459
2019-03-21T17:00:20.893Z,38.470459
2019-03-21T17:00:25.168Z,38.366699
2019-03-21T17:00:29.434Z,38.366699
2019-03-21T17:00:33.700Z,38.366699
2019-03-21T17:00:37.973Z,38.470459
2019-03-21T17:00:42.235Z,38.568115
2019-03-21T17:00:46.497Z,38.568115
2019-03-21T17:00:50.773Z,38.470459
2019-03-21T17:00:55.035Z,38.568115
2019-03-21T17:00:59.298Z,38.568115
2019-03-21T17:01:03.561Z,38.568115
2019-03-21T17:01:07.829Z,38.568115
2019-03-21T17:01:12.089Z,38.470459
2019-03-21T17:01:16.359Z,38.470459
2019-03-21T17:01:20.627Z,38.470459
2019-03-21T17:01:24.894Z,38.470459
2019-03-21T17:01:29.162Z,38.470459
2019-03-21T17:01:33.417Z,38.470459
2019-03-21T17:01:37.685Z,38.470459
2019-03-21T17:01:41.990Z,38.470459
2019-03-21T17:01:46.250Z,38.568115
2019-03-21T17:01:50.514Z,38.568115
2019-03-21T17:01:54.782Z,38.568115
2019-03-21T17:01:59.043Z,38.665771
2019-03-21T17:02:03.307Z,38.665771
2019-03-21T17:02:07.573Z,38.665771
2019-03-21T17:02:11.838Z,38.665771
2019-03-21T17:02:16.106Z,38.665771
2019-03-21T17:02:20.372Z,38.665771
2019-03-21T17:02:24.638Z,38.665771
2019-03-21T17:02:28.902Z,38.665771
2019-03-21T17:02:33.167Z,38.665771
2019-03-21T17:02:37.434Z,38.769531
2019-03-21T17:02:41.704Z,38.769531
2019-03-21T17:02:45.967Z,38.769531
2019-03-21T17:02:50.242Z,38.769531
2019-03-21T17:02:54.497Z,38.769531
2019-03-21T17:02:58.758Z,38.769531
2019-03-21T17:03:03.032Z,38.769531
2019-03-21T17:03:07.300Z,38.769531
2019-03-21T17:03:11.569Z,38.787842
2019-03-21T17:03:15.833Z,38.787842
2019-03-21T17:03:20.102Z,38.787842
2019-03-21T17:03:24.366Z,38.787842
2019-03-21T17:03:28.635Z,38.787842
2019-03-21T17:03:32.904Z,38.787842
2019-03-21T17:03:37.168Z,38.787842
2019-03-21T17:03:41.430Z,38.885498
2019-03-21T17:03:45.700Z,38.885498
2019-03-21T17:03:49.961Z,38.885498
2019-03-21T17:03:54.232Z,38.885498
2019-03-21T17:03:58.504Z,38.885498
2019-03-21T17:04:02.771Z,38.787842
2019-03-21T17:04:07.033Z,38.787842
2019-03-21T17:04:11.302Z,38.787842
2019-03-21T17:04:15.565Z,38.787842
2019-03-21T17:04:19.832Z,38.787842
2019-03-21T17:04:24.100Z,38.787842
2019-03-21T17:04:28.363Z,38.787842
2019-03-21T17:04:32.639Z,38.787842
2019-03-21T17:04:36.902Z,38.787842
2019-03-21T17:04:41.161Z,38.787842
2019-03-21T17:04:45.434Z,38.787842
2019-03-21T17:04:49.695Z,38.787842
2019-03-21T17:04:53.965Z,38.787842
2019-03-21T17:04:58.227Z,38.787842
2019-03-21T17:05:02.479Z,38.787842
2019-03-21T17:05:06.754Z,38.787842
2019-03-21T17:05:11.022Z,38.684082
2019-03-21T17:05:15.295Z,38.684082
2019-03-21T17:05:22.086Z,38.684082
2019-03-21T17:05:24.800Z,38.787842
2019-03-21T17:05:29.071Z,38.787842
2019-03-21T17:05:33.330Z,38.787842
2019-03-21T17:05:37.596Z,38.684082
2019-03-21T17:05:41.865Z,38.684082
2019-03-21T17:05:46.128Z,38.684082
2019-03-21T17:05:50.385Z,38.684082
2019-03-21T17:05:54.653Z,38.684082
2019-03-21T17:05:59.002Z,38.684082
2019-03-21T17:06:03.183Z,38.665771
2019-03-21T17:06:07.442Z,38.665771
2019-03-21T17:06:11.715Z,38.665771
2019-03-21T17:06:15.980Z,38.665771
2019-03-21T17:06:20.322Z,38.665771
2019-03-21T17:06:24.557Z,38.665771
2019-03-21T17:06:28.818Z,38.769531
2019-03-21T17:06:33.072Z,38.769531
2019-03-21T17:06:37.335Z,38.769531
2019-03-21T17:06:41.604Z,38.769531
2019-03-21T17:06:45.900Z,38.665771
2019-03-21T17:06:50.143Z,38.665771
2019-03-21T17:06:54.407Z,38.665771
2019-03-21T17:06:58.667Z,38.665771
2019-03-21T17:07:02.934Z,38.665771
2019-03-21T17:07:07.206Z,38.665771
2019-03-21T17:07:11.468Z,38.665771
2019-03-21T17:07:15.807Z,38.684082
2019-03-21T17:07:19.991Z,38.665771
2019-03-21T17:07:24.258Z,38.665771
2019-03-21T17:07:28.531Z,38.665771
2019-03-21T17:07:32.781Z,38.665771
2019-03-21T17:07:37.049Z,38.769531
2019-03-21T17:07:41.317Z,38.769531
2019-03-21T17:07:45.581Z,38.769531
2019-03-21T17:07:49.843Z,38.665771
2019-03-21T17:07:54.110Z,38.665771
2019-03-21T17:08:10.037Z,38.568115
2019-03-21T17:08:10.864Z,38.568115
2019-03-21T17:08:11.365Z,38.568115
2019-03-21T17:08:14.152Z,38.568115
2019-03-21T17:08:18.403Z,38.568115
2019-03-21T17:08:22.670Z,38.665771
2019-03-21T17:08:26.972Z,38.665771
2019-03-21T17:08:31.188Z,38.665771
2019-03-21T17:08:35.453Z,38.665771
2019-03-21T17:08:39.719Z,38.665771
2019-03-21T17:08:43.984Z,38.665771
2019-03-21T17:08:48.245Z,38.665771
2019-03-21T17:08:52.513Z,38.665771
2019-03-21T17:08:56.778Z,38.665771
2019-03-21T17:09:01.045Z,38.665771
2019-03-21T17:09:05.311Z,38.665771
2019-03-21T17:09:09.577Z,38.665771
2019-03-21T17:09:13.838Z,38.665771
2019-03-21T17:09:18.101Z,38.665771
2019-03-21T17:09:22.374Z,38.568115
2019-03-21T17:09:26.632Z,38.470459
2019-03-21T17:09:30.909Z,38.366699
2019-03-21T17:09:35.167Z,38.366699
2019-03-21T17:09:39.433Z,38.470459
2019-03-21T17:09:43.702Z,38.568115
2019-03-21T17:09:47.969Z,38.769531
2019-03-21T17:09:52.254Z,38.769531
2019-03-21T17:09:57.957Z,38.665771
2019-03-21T17:10:01.810Z,38.568115
2019-03-21T17:10:06.021Z,38.470459
2019-03-21T17:10:10.322Z,38.366699
2019-03-21T17:10:14.575Z,38.366699
2019-03-21T17:10:18.848Z,38.366699
2019-03-21T17:10:23.089Z,38.366699
2019-03-21T17:10:27.347Z,38.470459
2019-03-21T17:10:31.638Z,38.470459
2019-03-21T17:10:35.874Z,38.366699
2019-03-21T17:10:40.155Z,38.366699
2019-03-21T17:10:44.426Z,38.269043
2019-03-21T17:10:48.686Z,38.269043
2019-03-21T17:10:52.949Z,38.269043
2019-03-21T17:10:57.258Z,38.269043
2019-03-21T17:11:01.491Z,38.366699
2019-03-21T17:11:05.759Z,38.366699
2019-03-21T17:11:10.019Z,38.366699
2019-03-21T17:11:14.266Z,38.366699
2019-03-21T17:11:18.575Z,38.366699
2019-03-21T17:11:22.831Z,38.366699
2019-03-21T17:11:27.153Z,38.366699
2019-03-21T17:11:31.341Z,38.366699
2019-03-21T17:11:35.604Z,38.366699
2019-03-21T17:11:39.863Z,38.366699
2019-03-21T17:11:44.157Z,38.366699
2019-03-21T17:11:48.403Z,38.470459
2019-03-21T17:11:52.678Z,38.470459
2019-03-21T17:11:56.935Z,38.470459
2019-03-21T17:12:01.200Z,38.568115
2019-03-21T17:12:05.469Z,38.665771
2019-03-21T17:12:09.730Z,38.568115
2019-03-21T17:12:14.005Z,38.568115
2019-03-21T17:12:18.261Z,38.665771
2019-03-21T17:12:22.516Z,38.665771
2019-03-21T17:12:26.788Z,38.665771
2019-03-21T17:12:31.059Z,38.769531
2019-03-21T17:13:46.534Z,37.93335
2019-03-21T17:13:50.796Z,37.82959
2019-03-21T17:13:55.106Z,37.82959
2019-03-21T17:13:59.392Z,37.731934
2019-03-21T17:14:03.661Z,37.628174
2019-03-21T17:14:07.949Z,37.628174
2019-03-21T17:14:12.188Z,37.628174
2019-03-21T17:14:16.453Z,37.628174
2019-03-21T17:14:20.724Z,37.628174
2019-03-21T17:14:25.434Z,37.628174
2019-03-21T17:14:29.254Z,37.628174
2019-03-21T17:14:33.530Z,37.628174
2019-03-21T17:14:37.787Z,37.93335
2019-03-21T17:14:42.050Z,45.715332
2019-03-21T17:14:46.315Z,80.059814
2019-03-21T17:14:50.583Z,93.035889
2019-03-21T17:14:54.862Z,98.614502
2019-03-21T17:14:59.154Z,99.755859
2019-03-21T17:15:03.412Z,95.617676
2019-03-21T17:15:07.655Z,87.878418
2019-03-21T17:15:11.923Z,78.741455
2019-03-21T17:15:16.189Z,72.485352
2019-03-21T17:15:20.515Z,67.095947
2019-03-21T17:15:24.732Z,62.432861
2019-03-21T17:15:28.999Z,57.537842
2019-03-21T17:15:33.256Z,52.740479
2019-03-21T17:15:37.554Z,48.64502
2019-03-21T17:15:41.807Z,45.373535
2019-03-21T17:15:46.063Z,42.254639
2019-03-21T17:15:50.324Z,39.953613
2019-03-21T17:15:54.594Z,38.659668
2019-03-21T17:15:58.853Z,37.957764
2019-03-21T17:16:05.567Z,37.457275
2019-03-21T17:16:08.393Z,37.158203
2019-03-21T17:16:12.651Z,36.859131
2019-03-21T17:16:16.916Z,36.761475
2019-03-21T17:16:21.181Z,36.560059
2019-03-21T17:16:25.452Z,36.462402
2019-03-21T17:16:29.713Z,36.462402
2019-03-21T17:16:33.980Z,36.358643
2019-03-21T17:16:38.248Z,36.358643
2019-03-21T17:16:42.517Z,36.260986
2019-03-21T17:16:46.793Z,36.260986
2019-03-21T17:16:51.046Z,36.157227
2019-03-21T17:16:55.359Z,36.05957
2019-03-21T17:16:59.581Z,36.05957
2019-03-21T17:17:03.866Z,36.05957
2019-03-21T17:17:08.119Z,36.05957
2019-03-21T17:17:12.379Z,36.157227
2019-03-21T17:17:16.650Z,36.157227
2019-03-21T17:17:20.916Z,36.157227
2019-03-21T17:17:25.188Z,36.157227
2019-03-21T17:17:29.451Z,36.157227
2019-03-21T17:17:33.749Z,36.157227
2019-03-21T17:17:37.983Z,36.157227
2019-03-21T17:17:42.258Z,36.157227
2019-03-21T17:17:46.515Z,36.05957
2019-03-21T17:17:50.782Z,36.05957
2019-03-21T17:17:55.054Z,35.961914
2019-03-21T17:17:59.332Z,35.961914
2019-03-21T17:18:03.626Z,35.943604
2019-03-21T17:18:07.840Z,35.845947
2019-03-21T17:18:12.119Z,35.845947
2019-03-21T17:18:16.414Z,35.742188
2019-03-21T17:18:20.654Z,35.742188
2019-03-21T17:18:24.949Z,35.742188
2019-03-21T17:18:29.184Z,35.742188
2019-03-21T17:18:33.456Z,35.662842
2019-03-21T17:18:37.710Z,35.662842
2019-03-21T17:18:42.018Z,35.662842
2019-03-21T17:18:46.251Z,35.760498
2019-03-21T17:18:50.517Z,35.760498
2019-03-21T17:18:54.843Z,35.760498
2019-03-21T17:18:59.079Z,35.760498
2019-03-21T17:19:03.464Z,35.760498
2019-03-21T17:19:07.642Z,35.662842
2019-03-21T17:19:11.896Z,35.760498
2019-03-21T17:19:16.151Z,35.760498
2019-03-21T17:19:20.418Z,35.760498
2019-03-21T17:19:24.677Z,35.760498
2019-03-21T17:19:28.939Z,35.760498
2019-03-21T17:19:33.205Z,35.760498
2019-03-21T17:19:37.469Z,35.760498
2019-03-21T17:19:41.738Z,35.760498
2019-03-21T17:19:46.005Z,35.760498
2019-03-21T17:19:50.276Z,35.760498
2019-03-21T17:19:54.537Z,35.760498
2019-03-21T17:19:58.811Z,35.760498
2019-03-21T17:20:03.853Z,35.760498
2019-03-21T17:20:07.329Z,35.760498
2019-03-21T17:20:11.594Z,35.760498
2019-03-21T17:20:15.881Z,35.760498
2019-03-21T17:20:20.126Z,35.760498
2019-03-21T17:20:24.409Z,35.760498
2019-03-21T17:20:28.652Z,35.760498
2019-03-21T17:20:32.920Z,35.760498
2019-03-21T17:20:37.200Z,35.760498
2019-03-21T17:20:41.469Z,35.760498
2019-03-21T17:20:45.740Z,35.760498
2019-03-21T17:20:49.985Z,35.760498
2019-03-21T17:20:54.258Z,35.760498
2019-03-21T17:20:58.524Z,35.760498
2019-03-21T17:21:02.782Z,35.662842
2019-03-21T17:21:09.358Z,35.662842
2019-03-21T17:21:12.305Z,35.662842
2019-03-21T17:21:16.587Z,35.662842
2019-03-21T17:21:20.848Z,35.662842
2019-03-21T17:21:25.123Z,35.662842
2019-03-21T17:21:29.416Z,35.662842
2019-03-21T17:21:33.690Z,35.662842
2019-03-21T17:21:37.910Z,35.662842
2019-03-21T17:21:42.173Z,35.662842
2019-03-21T17:21:46.441Z,35.662842
2019-03-21T17:21:50.720Z,35.662842
2019-03-21T17:21:55.002Z,35.662842
2019-03-21T17:21:59.253Z,35.662842
2019-03-21T17:22:03.548Z,35.662842
2019-03-21T17:22:07.789Z,35.662842
2019-03-21T17:22:12.043Z,35.662842
2019-03-21T17:22:16.317Z,35.662842
2019-03-21T17:22:20.578Z,35.644531
2019-03-21T17:22:24.867Z,35.540771
2019-03-21T17:22:29.143Z,35.540771
2019-03-21T17:22:33.371Z,35.443115
2019-03-21T17:22:37.636Z,35.443115
2019-03-21T17:22:41.968Z,35.443115
2019-03-21T17:22:46.203Z,35.443115